createdAt,value
2023-04-07T18:41:46.211Z,2.10
2023-04-07T18:44:13.554Z,1.60
2023-04-07T18:46:40.596Z,1.07
2023-04-07T18:49:07.523Z,1.50
2023-04-07T18:51:34.463Z,1.60
2023-04-07T18:54:01.362Z,1.40
2023-04-07T18:56:28.295Z,1.40
2023-04-07T18:58:55.221Z,1.63
2023-04-07T19:01:22.295Z,2.20
2023-04-07T19:03:49.756Z,1.73
2023-04-07T19:06:17.394Z,1.43
2023-04-07T19:08:44.507Z,1.60
2023-04-07T19:11:11.789Z,1.50
2023-04-07T19:13:38.678Z,2.33
2023-04-07T19:16:07.504Z,1.83
2023-04-07T19:18:34.579Z,1.83
2023-04-07T19:21:01.546Z,1.73
2023-04-07T19:23:30.516Z,2.30
2023-04-07T19:25:57.587Z,2.20
2023-04-07T19:28:24.485Z,2.00
2023-04-07T19:30:51.386Z,2.10
2023-04-07T19:33:18.211Z,2.60
2023-04-07T19:35:45.405Z,2.87
2023-04-07T19:38:12.191Z,2.17
2023-04-07T19:40:39.052Z,2.67
2023-04-07T19:43:07.221Z,2.40
2023-04-07T19:45:34.217Z,3.27
2023-04-07T19:48:01.287Z,2.53
2023-04-07T19:50:28.347Z,2.30
2023-04-07T19:52:55.218Z,2.90
2023-04-07T19:55:22.157Z,3.00
2023-04-07T19:57:49.055Z,2.60
2023-04-07T20:00:16.594Z,2.27
2023-04-07T20:02:43.578Z,2.70
2023-04-07T20:05:10.581Z,2.20
2023-04-07T20:07:37.538Z,2.70
2023-04-07T20:10:04.814Z,2.83
2023-04-07T20:12:31.801Z,2.30
2023-04-07T20:14:58.725Z,2.70
2023-04-07T20:17:25.681Z,2.10
2023-04-07T20:19:55.222Z,2.50
2023-04-07T20:22:22.827Z,2.90
2023-04-07T20:24:49.726Z,1.40
2023-04-07T20:27:16.662Z,2.70
2023-04-07T20:29:44.056Z,2.13
2023-04-07T20:32:10.906Z,2.30
2023-04-07T20:34:37.790Z,2.20
2023-04-07T20:37:04.615Z,2.80
2023-04-07T20:39:31.484Z,2.57
2023-04-07T20:41:58.795Z,2.23
2023-04-07T20:44:27.908Z,2.23
2023-04-07T20:46:54.935Z,1.80
2023-04-07T20:49:21.824Z,1.70
2023-04-07T20:51:48.850Z,2.57
2023-04-07T20:54:15.699Z,1.70
2023-04-07T20:56:44.584Z,3.30
2023-04-07T20:59:11.639Z,2.47
2023-04-07T21:01:38.727Z,2.23
2023-04-07T21:04:05.871Z,2.50
2023-04-07T21:06:33.173Z,1.40
2023-04-07T21:09:00.111Z,1.83
2023-04-07T21:11:27.374Z,2.17
2023-04-07T21:13:54.494Z,3.43
2023-04-07T21:16:21.817Z,1.93
2023-04-07T21:18:49.050Z,1.90
2023-04-07T21:21:16.618Z,1.70
2023-04-07T21:23:43.609Z,2.00
2023-04-07T21:26:10.645Z,1.43
2023-04-07T21:28:40.001Z,1.87
2023-04-07T21:31:07.845Z,1.77
2023-04-07T21:33:35.183Z,1.47
2023-04-07T21:36:03.829Z,1.50
2023-04-07T21:38:31.448Z,2.37
2023-04-07T21:40:58.505Z,2.50
2023-04-07T21:43:26.327Z,1.57
2023-04-07T21:45:53.540Z,1.73
2023-04-07T21:48:23.397Z,1.67
2023-04-07T21:50:53.671Z,2.37
2023-04-07T21:53:20.973Z,2.83
2023-04-07T21:55:48.052Z,2.63
2023-04-07T21:58:14.943Z,2.80
2023-04-07T22:00:41.842Z,4.10
2023-04-07T22:03:08.927Z,3.47
2023-04-07T22:05:36.012Z,4.30
2023-04-07T22:08:03.199Z,6.27
2023-04-07T22:10:30.514Z,4.10
2023-04-07T22:12:57.439Z,7.93
2023-04-07T22:15:24.475Z,5.10
2023-04-07T22:17:51.338Z,8.10
2023-04-07T22:20:18.278Z,4.73
2023-04-07T22:22:45.383Z,4.13
2023-04-07T22:25:12.234Z,5.13
2023-04-07T22:27:39.077Z,4.90
2023-04-07T22:30:09.878Z,5.53
2023-04-07T22:32:36.996Z,4.67
2023-04-07T22:35:04.038Z,5.23
2023-04-07T22:37:31.048Z,5.80
2023-04-07T22:39:57.882Z,3.60
2023-04-07T22:42:24.706Z,6.83
2023-04-07T22:44:51.613Z,5.40
2023-04-07T22:47:18.441Z,4.87
2023-04-07T22:49:45.467Z,6.13
2023-04-07T22:52:12.258Z,8.80
2023-04-07T22:54:39.052Z,8.80
2023-04-07T22:57:06.253Z,8.30
2023-04-07T22:59:33.073Z,7.80
2023-04-07T23:01:59.979Z,6.80
2023-04-07T23:04:27.215Z,7.37
2023-04-07T23:06:54.301Z,8.40
2023-04-07T23:09:21.312Z,7.13
2023-04-07T23:11:48.736Z,4.40
2023-04-07T23:14:16.102Z,7.70
2023-04-07T23:16:43.018Z,10.13
2023-04-07T23:19:11.778Z,6.97
2023-04-07T23:21:39.602Z,5.67
2023-04-07T23:24:06.474Z,5.60
2023-04-07T23:26:33.369Z,7.63
2023-04-07T23:29:00.216Z,7.03
2023-04-07T23:31:28.156Z,8.97
2023-04-07T23:33:55.130Z,8.27
2023-04-07T23:36:21.959Z,10.37
2023-04-07T23:38:49.095Z,8.00
2023-04-07T23:41:16.291Z,7.93
2023-04-07T23:43:43.209Z,9.03
2023-04-07T23:46:10.365Z,9.80
2023-04-07T23:48:37.238Z,7.43
2023-04-07T23:51:04.162Z,6.20
2023-04-07T23:53:31.055Z,6.70
2023-04-07T23:55:57.941Z,6.37
2023-04-07T23:58:24.802Z,5.73
